Time;durP1;ratioP1;P1;durP2;ratioP2;P2;SDS_P1;SDS_P2;PMS_P1;PMS_P2;Temp;Humidity;BMP_temperature;BMP_pressure;BME280_temperature;BME280_humidity;BME280_pressure;Samples;Min_cycle;Max_cycle;Signal;HPM_P1;HPM_P2
2020/12/29 00:01:30;;;;;;;5.25;3.28;;;;;;;;;;5052489;28;20052;-17
2020/12/29 00:03:55;;;;;;;6.18;2.85;;;;;;;;;;5050795;28;20467;-17
2020/12/29 00:06:22;;;;;;;3.83;3.13;;;;;;;;;;5052185;28;20021;-17
2020/12/29 00:08:47;;;;;;;6.72;3.47;;;;;;;;;;5052332;28;20028;-17
2020/12/29 00:11:13;;;;;;;7.93;3.50;;;;;;;;;;5052112;28;20025;-18
2020/12/29 00:13:38;;;;;;;5.43;3.47;;;;;;;;;;5051990;28;20116;-17
2020/12/29 00:16:04;;;;;;;7.13;3.63;;;;;;;;;;5050721;28;20111;-17
2020/12/29 00:18:29;;;;;;;5.20;3.03;;;;;;;;;;5050803;28;20028;-18
2020/12/29 00:20:54;;;;;;;6.72;3.50;;;;;;;;;;5051893;28;20159;-18
2020/12/29 00:23:20;;;;;;;4.90;2.80;;;;;;;;;;5052077;28;20108;-17
2020/12/29 00:25:45;;;;;;;4.55;3.08;;;;;;;;;;5052001;28;20017;-18
2020/12/29 00:28:11;;;;;;;7.10;3.85;;;;;;;;;;5050647;28;20480;-18
2020/12/29 00:30:36;;;;;;;7.88;4.28;;;;;;;;;;5034046;28;20388;-17
2020/12/29 00:33:01;;;;;;;5.55;3.47;;;;;;;;;;5053420;28;20356;-17
2020/12/29 00:35:27;;;;;;;6.18;4.40;;;;;;;;;;5055859;28;20399;-18
2020/12/29 00:37:52;;;;;;;6.18;3.33;;;;;;;;;;5055697;28;20106;-17
2020/12/29 00:40:17;;;;;;;8.88;4.63;;;;;;;;;;5055613;28;20021;-17
2020/12/29 00:42:43;;;;;;;6.55;4.07;;;;;;;;;;5055862;28;20025;-18
2020/12/29 00:45:08;;;;;;;4.95;3.85;;;;;;;;;;5054294;28;20371;-16
2020/12/29 00:47:34;;;;;;;6.50;4.35;;;;;;;;;;5055584;28;20104;-18
2020/12/29 00:50:00;;;;;;;6.68;4.20;;;;;;;;;;5053932;28;20052;-18
2020/12/29 00:52:25;;;;;;;8.68;4.47;;;;;;;;;;5054207;28;20391;-17
2020/12/29 00:54:58;;;;;;;6.90;3.35;;;;;;;;;;5055610;28;20364;-17
2020/12/29 00:57:37;;;;;;;4.82;3.45;;;;;;;;;;5054097;28;20095;-18
2020/12/29 01:00:06;;;;;;;8.52;4.50;;;;;;;;;;5054009;28;20029;-17
2020/12/29 01:02:46;;;;;;;5.85;3.67;;;;;;;;;;5053792;28;20021;-18
2020/12/29 01:05:18;;;;;;;7.35;4.10;;;;;;;;;;5053964;28;20029;-17
2020/12/29 01:07:43;;;;;;;5.75;3.25;;;;;;;;;;5053893;28;20029;-17
2020/12/29 01:10:09;;;;;;;8.45;3.92;;;;;;;;;;5054936;28;20017;-17
2020/12/29 01:12:43;;;;;;;7.63;3.97;;;;;;;;;;5053739;28;20094;-17
2020/12/29 01:15:09;;;;;;;7.28;3.25;;;;;;;;;;5053775;28;20566;-17
2020/12/29 01:17:54;;;;;;;8.10;4.20;;;;;;;;;;5053530;28;20035;-17
2020/12/29 01:20:20;;;;;;;5.50;3.33;;;;;;;;;;5055062;28;20147;-17
2020/12/29 01:22:45;;;;;;;9.90;4.13;;;;;;;;;;5053504;28;20349;-17
2020/12/29 01:25:10;;;;;;;9.13;4.43;;;;;;;;;;5054840;28;20290;-17
2020/12/29 01:27:36;;;;;;;9.73;4.22;;;;;;;;;;5053541;28;20016;-21
2020/12/29 01:30:04;;;;;;;6.75;4.57;;;;;;;;;;5053278;28;20044;-17
2020/12/29 01:32:30;;;;;;;6.90;4.25;;;;;;;;;;5054718;28;20017;-16
2020/12/29 01:34:55;;;;;;;5.80;3.88;;;;;;;;;;5053384;28;20476;-17
2020/12/29 01:37:21;;;;;;;5.97;3.67;;;;;;;;;;5053327;28;20430;-17
2020/12/29 01:39:46;;;;;;;6.03;3.47;;;;;;;;;;5054559;28;20021;-17
2020/12/29 01:42:11;;;;;;;4.57;3.20;;;;;;;;;;5053185;28;20371;-18
2020/12/29 01:44:37;;;;;;;7.25;3.58;;;;;;;;;;5052867;28;20116;-17
2020/12/29 01:47:03;;;;;;;6.90;3.85;;;;;;;;;;5054408;28;20460;-17
2020/12/29 01:49:28;;;;;;;7.78;3.78;;;;;;;;;;5053327;28;20043;-18
2020/12/29 01:51:54;;;;;;;4.20;3.00;;;;;;;;;;5054142;28;20052;-17
2020/12/29 01:54:19;;;;;;;3.78;2.65;;;;;;;;;;5054363;28;20021;-18
2020/12/29 01:56:44;;;;;;;5.22;2.83;;;;;;;;;;5054314;28;20115;-17
2020/12/29 01:59:12;;;;;;;5.40;3.45;;;;;;;;;;5052924;28;20036;-18
2020/12/29 02:01:41;;;;;;;5.43;3.42;;;;;;;;;;5054254;28;20071;-17
2020/12/29 02:04:07;;;;;;;6.55;3.53;;;;;;;;;;5054686;28;20029;-18
2020/12/29 02:06:37;;;;;;;5.72;3.85;;;;;;;;;;5052714;28;20029;-17
2020/12/29 02:09:03;;;;;;;11.65;5.18;;;;;;;;;;5054274;28;20506;-17
2020/12/29 02:11:29;;;;;;;8.77;5.00;;;;;;;;;;5054022;28;20028;-17
2020/12/29 02:13:54;;;;;;;8.05;4.03;;;;;;;;;;5052487;28;20424;-17
2020/12/29 02:16:20;;;;;;;10.65;4.68;;;;;;;;;;5054246;28;20025;-18
2020/12/29 02:18:45;;;;;;;5.85;3.25;;;;;;;;;;5054092;28;20096;-17
2020/12/29 02:21:11;;;;;;;7.78;4.47;;;;;;;;;;5053838;28;20016;-17
2020/12/29 02:23:36;;;;;;;7.47;4.50;;;;;;;;;;5053762;28;20040;-17
2020/12/29 02:26:01;;;;;;;6.47;4.10;;;;;;;;;;5053627;28;20032;-17
2020/12/29 02:28:27;;;;;;;7.00;4.32;;;;;;;;;;5053921;28;20032;-17
2020/12/29 02:30:52;;;;;;;10.10;4.57;;;;;;;;;;5052158;28;20025;-17
2020/12/29 02:33:18;;;;;;;12.18;4.07;;;;;;;;;;5052291;28;20032;-17
2020/12/29 02:35:43;;;;;;;7.05;4.68;;;;;;;;;;5053809;28;20376;-17
2020/12/29 02:38:08;;;;;;;6.53;3.67;;;;;;;;;;5053454;28;20395;-17
2020/12/29 02:40:34;;;;;;;7.75;4.45;;;;;;;;;;5053560;28;20111;-17
2020/12/29 02:43:01;;;;;;;9.52;4.63;;;;;;;;;;5053422;28;20029;-17
2020/12/29 02:45:26;;;;;;;6.28;3.67;;;;;;;;;;5053406;28;20052;-17
2020/12/29 02:47:51;;;;;;;6.15;3.83;;;;;;;;;;5053510;28;20079;-17
2020/12/29 02:50:17;;;;;;;6.78;4.50;;;;;;;;;;5052994;28;20049;-17
2020/12/29 02:52:42;;;;;;;6.40;3.88;;;;;;;;;;5053222;28;20090;-17
2020/12/29 02:55:08;;;;;;;8.00;4.47;;;;;;;;;;5052395;28;20032;-18
2020/12/29 02:57:33;;;;;;;7.03;4.53;;;;;;;;;;5053103;28;20029;-18
2020/12/29 02:59:58;;;;;;;7.80;4.15;;;;;;;;;;5053007;28;20012;-18
2020/12/29 03:02:24;;;;;;;9.77;4.30;;;;;;;;;;5051859;28;20060;-17
2020/12/29 03:04:49;;;;;;;7.53;3.88;;;;;;;;;;5053126;28;20452;-18
2020/12/29 03:07:15;;;;;;;5.60;3.58;;;;;;;;;;5051646;28;20037;-16
2020/12/29 03:09:40;;;;;;;9.18;4.47;;;;;;;;;;5052900;28;20017;-17
2020/12/29 03:12:06;;;;;;;9.80;4.70;;;;;;;;;;5052612;28;20040;-17
2020/12/29 03:14:31;;;;;;;6.60;4.82;;;;;;;;;;5053096;28;20029;-17
2020/12/29 03:16:56;;;;;;;4.25;3.13;;;;;;;;;;5052916;28;20078;-17
2020/12/29 03:19:22;;;;;;;6.70;3.70;;;;;;;;;;5053006;28;20478;-17
2020/12/29 03:21:48;;;;;;;6.75;4.40;;;;;;;;;;5051307;28;20031;-17
2020/12/29 03:24:14;;;;;;;7.45;4.35;;;;;;;;;;5052588;28;20017;-17
2020/12/29 03:26:39;;;;;;;8.07;4.22;;;;;;;;;;5052645;28;20035;-17
2020/12/29 03:29:05;;;;;;;5.75;3.65;;;;;;;;;;5051242;28;20108;-17
2020/12/29 03:31:30;;;;;;;8.25;4.07;;;;;;;;;;5052410;28;20033;-17
2020/12/29 03:33:55;;;;;;;6.50;3.60;;;;;;;;;;5051208;28;20025;-17
2020/12/29 03:36:21;;;;;;;7.68;3.97;;;;;;;;;;5052553;28;20032;-17
2020/12/29 03:38:46;;;;;;;8.57;3.88;;;;;;;;;;5052759;28;20416;-18
2020/12/29 03:41:12;;;;;;;29.40;9.52;;;;;;;;;;5052427;28;20033;-17
2020/12/29 03:43:37;;;;;;;13.38;6.47;;;;;;;;;;5052365;28;20017;-17
2020/12/29 03:46:02;;;;;;;52.42;17.95;;;;;;;;;;5052552;28;20109;-17
2020/12/29 03:48:28;;;;;;;7.00;4.55;;;;;;;;;;5051384;28;20470;-17
2020/12/29 03:50:53;;;;;;;10.48;4.82;;;;;;;;;;5052108;28;20053;-17
2020/12/29 03:53:19;;;;;;;5.30;3.42;;;;;;;;;;5052190;28;20029;-17
2020/12/29 03:55:45;;;;;;;7.70;4.05;;;;;;;;;;5051030;28;20054;-17
2020/12/29 03:58:10;;;;;;;32.58;11.00;;;;;;;;;;5052252;28;20092;-17
2020/12/29 04:00:36;;;;;;;13.40;5.70;;;;;;;;;;5050945;28;20472;-17
2020/12/29 04:03:02;;;;;;;6.25;3.72;;;;;;;;;;5052168;28;20073;-17
2020/12/29 04:05:27;;;;;;;7.53;4.03;;;;;;;;;;5052276;28;20479;-17
2020/12/29 04:07:53;;;;;;;8.63;5.00;;;;;;;;;;5055282;28;20468;-17
2020/12/29 04:10:18;;;;;;;9.30;4.80;;;;;;;;;;5056260;28;20430;-17
2020/12/29 04:12:44;;;;;;;7.43;4.30;;;;;;;;;;5056230;28;20356;-18
2020/12/29 04:15:09;;;;;;;8.32;3.53;;;;;;;;;;5056065;28;20071;-18
2020/12/29 04:17:38;;;;;;;5.32;3.45;;;;;;;;;;5056489;28;20032;-17
2020/12/29 04:20:07;;;;;;;6.28;3.97;;;;;;;;;;5055946;28;20643;-17
2020/12/29 04:22:33;;;;;;;9.68;5.05;;;;;;;;;;5056018;28;20422;-17
2020/12/29 04:24:59;;;;;;;4.97;3.35;;;;;;;;;;5054652;28;20021;-17
2020/12/29 04:27:25;;;;;;;7.32;3.75;;;;;;;;;;5056286;28;20456;-17
2020/12/29 04:29:50;;;;;;;5.95;3.95;;;;;;;;;;5056089;28;20035;-17
2020/12/29 04:32:16;;;;;;;8.00;4.22;;;;;;;;;;5054467;28;20161;-17
2020/12/29 04:34:42;;;;;;;7.95;3.85;;;;;;;;;;5056224;28;20100;-17
2020/12/29 04:37:08;;;;;;;5.53;3.75;;;;;;;;;;5055686;28;20028;-17
2020/12/29 04:39:33;;;;;;;7.55;4.53;;;;;;;;;;5055807;28;20021;-17
2020/12/29 04:42:03;;;;;;;9.13;4.03;;;;;;;;;;5054329;28;20040;-17
2020/12/29 04:44:29;;;;;;;7.82;3.67;;;;;;;;;;5054610;28;20116;-17
2020/12/29 04:46:54;;;;;;;4.38;3.22;;;;;;;;;;5055603;28;20100;-17
2020/12/29 04:49:20;;;;;;;7.15;3.40;;;;;;;;;;5055426;28;20048;-16
2020/12/29 04:51:46;;;;;;;10.63;5.95;;;;;;;;;;5055438;28;20041;-18
2020/12/29 04:54:14;;;;;;;13.45;6.97;;;;;;;;;;5054215;28;20083;-18
2020/12/29 04:56:39;;;;;;;6.85;4.43;;;;;;;;;;5037434;28;20483;-18
2020/12/29 04:59:05;;;;;;;7.82;2.78;;;;;;;;;;5054048;28;20029;-17
2020/12/29 05:01:31;;;;;;;3.72;2.63;;;;;;;;;;5054140;28;20096;-18
2020/12/29 05:03:56;;;;;;;3.70;2.85;;;;;;;;;;5055214;28;20108;-17
2020/12/29 05:06:25;;;;;;;7.72;3.47;;;;;;;;;;5055385;28;20105;-18
2020/12/29 05:08:51;;;;;;;4.20;3.42;;;;;;;;;;5055076;28;20021;-17
2020/12/29 05:11:17;;;;;;;4.95;2.75;;;;;;;;;;5053793;28;20029;-18
2020/12/29 05:13:44;;;;;;;4.45;2.70;;;;;;;;;;5055115;28;20036;-18
2020/12/29 05:16:09;;;;;;;7.88;4.40;;;;;;;;;;5055028;28;20049;-18
2020/12/29 05:18:35;;;;;;;4.38;2.67;;;;;;;;;;5054301;28;20364;-18
2020/12/29 05:21:01;;;;;;;3.67;2.50;;;;;;;;;;5055075;28;20147;-18
2020/12/29 05:23:26;;;;;;;4.80;3.63;;;;;;;;;;5053772;28;20407;-17
2020/12/29 05:25:51;;;;;;;2.97;2.53;;;;;;;;;;5054693;28;20103;-18
2020/12/29 05:28:17;;;;;;;3.03;2.28;;;;;;;;;;5054923;28;20072;-19
2020/12/29 05:30:43;;;;;;;3.25;2.17;;;;;;;;;;5054800;28;20557;-18
2020/12/29 05:33:12;;;;;;;4.15;2.72;;;;;;;;;;5054572;28;20036;-18
2020/12/29 05:35:38;;;;;;;3.35;2.22;;;;;;;;;;5053501;28;20024;-18
2020/12/29 05:38:03;;;;;;;4.72;2.30;;;;;;;;;;5053349;28;20029;-17
2020/12/29 05:40:29;;;;;;;4.03;2.63;;;;;;;;;;5054603;28;20407;-18
2020/12/29 05:42:56;;;;;;;5.20;2.88;;;;;;;;;;5054437;28;20036;-18
2020/12/29 05:45:25;;;;;;;4.22;2.80;;;;;;;;;;5054833;28;20021;-18
2020/12/29 05:47:57;;;;;;;4.72;2.55;;;;;;;;;;5054408;28;20037;-18
2020/12/29 05:50:23;;;;;;;3.78;2.22;;;;;;;;;;5052966;28;20041;-17
2020/12/29 05:52:53;;;;;;;4.15;2.65;;;;;;;;;;5054712;28;20434;-18
2020/12/29 05:55:19;;;;;;;3.75;2.33;;;;;;;;;;5054466;28;20108;-18
2020/12/29 05:57:57;;;;;;;3.05;1.98;;;;;;;;;;5053143;28;20048;-18
2020/12/29 06:00:26;;;;;;;3.85;1.98;;;;;;;;;;5054323;28;20033;-18
2020/12/29 06:02:53;;;;;;;2.97;2.17;;;;;;;;;;5054165;28;20070;-18
2020/12/29 06:05:21;;;;;;;7.13;3.10;;;;;;;;;;5052910;28;20094;-18
2020/12/29 06:07:47;;;;;;;7.18;3.38;;;;;;;;;;5054037;28;20519;-18
2020/12/29 06:10:14;;;;;;;4.07;2.65;;;;;;;;;;5052622;28;20082;-18
2020/12/29 06:12:41;;;;;;;2.75;1.98;;;;;;;;;;5054036;28;20021;-18
2020/12/29 06:15:08;;;;;;;3.67;1.98;;;;;;;;;;5053850;28;20048;-18
2020/12/29 06:17:40;;;;;;;2.55;2.00;;;;;;;;;;5052805;28;20045;-18
2020/12/29 06:20:06;;;;;;;3.13;2.30;;;;;;;;;;5053821;28;20111;-18
2020/12/29 06:22:31;;;;;;;3.22;2.30;;;;;;;;;;5054041;28;20032;-17
2020/12/29 06:24:57;;;;;;;2.08;1.80;;;;;;;;;;5053929;28;20057;-18
2020/12/29 06:27:27;;;;;;;3.38;1.63;;;;;;;;;;5053807;28;20071;-18
2020/12/29 06:29:54;;;;;;;5.15;2.00;;;;;;;;;;5051543;28;20024;-18
2020/12/29 06:32:19;;;;;;;2.30;2.08;;;;;;;;;;5053276;28;20037;-18
2020/12/29 06:34:46;;;;;;;1.75;1.58;;;;;;;;;;5053557;28;20217;-18
2020/12/29 06:37:22;;;;;;;2.67;1.80;;;;;;;;;;5053430;28;20028;-18
2020/12/29 06:39:49;;;;;;;3.90;3.25;;;;;;;;;;5053463;28;20029;-17
2020/12/29 06:42:16;;;;;;;4.75;3.80;;;;;;;;;;5053328;28;20613;-18
2020/12/29 06:44:42;;;;;;;3.38;3.00;;;;;;;;;;5053288;28;20037;-18
2020/12/29 06:47:08;;;;;;;3.58;3.25;;;;;;;;;;5053329;28;20017;-17
2020/12/29 06:49:34;;;;;;;5.50;3.28;;;;;;;;;;5051888;28;20045;-17
2020/12/29 06:52:13;;;;;;;4.55;2.95;;;;;;;;;;5053070;28;20137;-18
2020/12/29 06:54:45;;;;;;;3.30;2.67;;;;;;;;;;5053289;28;20021;-17
2020/12/29 06:57:10;;;;;;;3.20;2.43;;;;;;;;;;5053091;28;20098;-17
2020/12/29 06:59:42;;;;;;;4.45;2.45;;;;;;;;;;5052970;28;20017;-18
2020/12/29 07:02:17;;;;;;;3.83;2.80;;;;;;;;;;5052886;28;20426;-17
2020/12/29 07:04:52;;;;;;;5.38;2.60;;;;;;;;;;5051600;28;20426;-16
2020/12/29 07:07:22;;;;;;;3.22;2.22;;;;;;;;;;5053050;28;20029;-17
2020/12/29 07:09:48;;;;;;;2.55;1.90;;;;;;;;;;5051682;28;20035;-19
2020/12/29 07:12:16;;;;;;;2.05;1.60;;;;;;;;;;5051384;28;20119;-16
2020/12/29 07:14:41;;;;;;;6.60;1.92;;;;;;;;;;5052871;28;20036;-16
2020/12/29 07:17:07;;;;;;;2.08;1.35;;;;;;;;;;5052718;28;20025;-18
2020/12/29 07:19:36;;;;;;;1.23;1.13;;;;;;;;;;5051506;28;20013;-18
2020/12/29 07:22:09;;;;;;;3.42;1.20;;;;;;;;;;5052526;28;20029;-17
2020/12/29 07:24:34;;;;;;;1.95;1.45;;;;;;;;;;5052778;28;20096;-16
2020/12/29 07:27:00;;;;;;;3.53;1.70;;;;;;;;;;5051531;28;20099;-17
2020/12/29 07:29:25;;;;;;;2.85;1.70;;;;;;;;;;5052825;28;20025;-18
2020/12/29 07:31:51;;;;;;;6.45;3.00;;;;;;;;;;5052733;28;20254;-16
2020/12/29 07:34:16;;;;;;;4.82;2.42;;;;;;;;;;5052517;28;20025;-18
2020/12/29 07:36:45;;;;;;;12.38;5.53;;;;;;;;;;5052842;28;20051;-17
2020/12/29 07:39:12;;;;;;;4.70;2.85;;;;;;;;;;5052683;28;20400;-19
2020/12/29 07:41:38;;;;;;;5.85;3.03;;;;;;;;;;5052079;28;20013;-18
2020/12/29 07:44:03;;;;;;;6.60;3.45;;;;;;;;;;5051019;28;20147;-18
2020/12/29 07:46:29;;;;;;;5.30;3.47;;;;;;;;;;5052480;28;20806;-17
2020/12/29 07:48:54;;;;;;;5.15;2.70;;;;;;;;;;5050918;28;20116;-18
2020/12/29 07:51:20;;;;;;;4.10;2.55;;;;;;;;;;5052071;28;20110;-17
2020/12/29 07:53:46;;;;;;;4.78;2.17;;;;;;;;;;5052662;28;20110;-18
2020/12/29 07:56:11;;;;;;;2.60;1.23;;;;;;;;;;5050840;28;20045;-18
2020/12/29 07:58:37;;;;;;;3.40;1.20;;;;;;;;;;5050108;28;20028;-18
2020/12/29 08:01:03;;;;;;;1.10;0.82;;;;;;;;;;5051703;28;20021;-18
2020/12/29 08:03:28;;;;;;;1.17;0.77;;;;;;;;;;5051657;28;20063;-18
2020/12/29 08:05:53;;;;;;;6.45;1.55;;;;;;;;;;5052031;28;20032;-18
2020/12/29 08:08:19;;;;;;;1.80;1.30;;;;;;;;;;5050863;28;20108;-17
2020/12/29 08:10:44;;;;;;;2.42;1.40;;;;;;;;;;5051987;28;20040;-17
2020/12/29 08:13:11;;;;;;;1.77;1.10;;;;;;;;;;5052002;28;20029;-16
2020/12/29 08:15:40;;;;;;;1.23;1.10;;;;;;;;;;5052342;28;20021;-17
2020/12/29 08:18:07;;;;;;;1.60;1.00;;;;;;;;;;5051925;28;20472;-17
2020/12/29 08:20:33;;;;;;;2.40;1.33;;;;;;;;;;5051920;28;20414;-16
2020/12/29 08:23:03;;;;;;;1.55;1.27;;;;;;;;;;5051856;28;20082;-17
2020/12/29 08:25:30;;;;;;;1.70;1.02;;;;;;;;;;5052289;28;20032;-18
2020/12/29 08:27:57;;;;;;;2.72;1.48;;;;;;;;;;5051747;28;20598;-18
2020/12/29 08:30:23;;;;;;;1.70;1.50;;;;;;;;;;5050650;28;20376;-17
2020/12/29 08:32:52;;;;;;;2.15;0.93;;;;;;;;;;5051803;28;20491;-18
2020/12/29 08:35:18;;;;;;;4.22;2.28;;;;;;;;;;5050544;28;20028;-17
2020/12/29 08:37:51;;;;;;;2.90;1.30;;;;;;;;;;5052122;28;20021;-18
2020/12/29 08:40:16;;;;;;;;;;;;;;;;;;5052461;28;20060;-18
2020/12/29 08:42:43;;;;;;;0.70;0.65;;;;;;;;;;5051809;28;19909;-18
2020/12/29 08:45:10;;;;;;;2.00;0.90;;;;;;;;;;5051598;28;20067;-18
2020/12/29 08:47:35;;;;;;;1.83;1.17;;;;;;;;;;5051819;28;20041;-18
2020/12/29 08:53:34;;;;;;;1.98;0.95;;;;;;;;;;5052633;28;20094;-17
2020/12/29 08:55:59;;;;;;;1.17;1.02;;;;;;;;;;5054091;28;20055;-17
2020/12/29 08:58:26;;;;;;;2.08;1.20;;;;;;;;;;5055366;28;20095;-18
2020/12/29 09:00:51;;;;;;;2.95;1.10;;;;;;;;;;5055289;28;20037;-16
2020/12/29 09:03:21;;;;;;;2.17;1.25;;;;;;;;;;5054026;28;20139;-18
2020/12/29 09:05:48;;;;;;;1.40;1.13;;;;;;;;;;5055117;28;20124;-17
2020/12/29 09:08:24;;;;;;;1.33;0.80;;;;;;;;;;5055059;28;20020;-17
2020/12/29 09:11:06;;;;;;;3.20;1.20;;;;;;;;;;5055202;28;20498;-19
2020/12/29 09:13:31;;;;;;;2.17;1.30;;;;;;;;;;5055146;28;20412;-18
2020/12/29 09:16:08;;;;;;;2.22;1.70;;;;;;;;;;5054997;28;20013;-16
2020/12/29 09:18:37;;;;;;;1.45;1.10;;;;;;;;;;5055118;28;20036;-16
2020/12/29 09:21:17;;;;;;;1.98;1.45;;;;;;;;;;5054734;28;20032;-17
2020/12/29 09:23:43;;;;;;;1.45;1.15;;;;;;;;;;5054934;28;20021;-17
2020/12/29 09:26:08;;;;;;;1.23;1.00;;;;;;;;;;5055070;28;20028;-18
2020/12/29 09:28:34;;;;;;;1.23;1.00;;;;;;;;;;5054785;28;20021;-16
2020/12/29 09:31:10;;;;;;;0.77;0.77;;;;;;;;;;5054607;28;20021;-17
2020/12/29 09:33:37;;;;;;;1.20;0.70;;;;;;;;;;5054944;28;20091;-17
2020/12/29 09:36:03;;;;;;;0.70;0.70;;;;;;;;;;5054520;28;20676;-18
2020/12/29 09:38:29;;;;;;;1.40;1.00;;;;;;;;;;5053420;28;20479;-18
2020/12/29 09:40:54;;;;;;;7.38;0.93;;;;;;;;;;5054436;28;20100;-17
2020/12/29 09:43:21;;;;;;;0.70;0.65;;;;;;;;;;5054744;28;20025;-18
2020/12/29 09:45:47;;;;;;;0.38;0.38;;;;;;;;;;5054769;28;20040;-18
2020/12/29 09:48:13;;;;;;;1.90;1.80;;;;;;;;;;5054547;28;20403;-17
2020/12/29 09:50:38;;;;;;;2.38;1.50;;;;;;;;;;5054244;28;20053;-17
2020/12/29 09:53:04;;;;;;;2.25;1.65;;;;;;;;;;5054237;28;20047;-16
2020/12/29 09:55:29;;;;;;;1.90;1.30;;;;;;;;;;5054290;28;20028;-18
2020/12/29 09:57:56;;;;;;;2.42;1.35;;;;;;;;;;5052782;28;20379;-18
2020/12/29 10:00:21;;;;;;;2.00;1.55;;;;;;;;;;5054215;28;20060;-18
2020/12/29 10:02:47;;;;;;;1.25;1.13;;;;;;;;;;4701393;28;10000127;-19
2020/12/29 10:05:12;;;;;;;1.00;0.80;;;;;;;;;;5050080;28;20025;-19
2020/12/29 10:07:38;;;;;;;1.73;1.48;;;;;;;;;;5049752;28;20091;-20
2020/12/29 10:10:04;;;;;;;1.35;1.25;;;;;;;;;;5050757;28;20021;-19
2020/12/29 10:12:32;;;;;;;2.60;1.67;;;;;;;;;;5050633;28;20037;-20
2020/12/29 10:15:00;;;;;;;3.97;2.33;;;;;;;;;;5050354;28;20021;-19
2020/12/29 10:17:27;;;;;;;4.28;2.47;;;;;;;;;;5050777;28;20033;-18
2020/12/29 10:19:56;;;;;;;5.80;3.38;;;;;;;;;;5048945;28;20013;-19
2020/12/29 10:22:21;;;;;;;6.68;3.83;;;;;;;;;;5050238;28;20056;-18
2020/12/29 10:24:47;;;;;;;7.28;2.30;;;;;;;;;;5039680;28;20017;-19
2020/12/29 10:27:12;;;;;;;7.45;3.30;;;;;;;;;;5030067;28;20040;-18
2020/12/29 10:29:37;;;;;;;5.70;2.92;;;;;;;;;;5030054;28;20021;-18
2020/12/29 10:32:03;;;;;;;6.72;3.13;;;;;;;;;;5029509;28;20037;-19
2020/12/29 10:34:28;;;;;;;5.20;3.40;;;;;;;;;;5028744;28;20358;-18
2020/12/29 10:36:54;;;;;;;3.67;2.58;;;;;;;;;;5030069;28;20033;-18
2020/12/29 10:39:19;;;;;;;4.03;2.67;;;;;;;;;;5043208;28;20483;-17
2020/12/29 10:41:45;;;;;;;3.08;2.13;;;;;;;;;;5050082;28;20047;-19
2020/12/29 10:44:11;;;;;;;3.83;2.20;;;;;;;;;;5049578;28;20472;-19
2020/12/29 10:46:37;;;;;;;3.42;2.30;;;;;;;;;;5049320;28;20032;-18
2020/12/29 10:49:02;;;;;;;4.28;2.38;;;;;;;;;;5049185;28;20021;-18
2020/12/29 10:51:28;;;;;;;3.25;1.73;;;;;;;;;;5048858;28;20048;-17
2020/12/29 10:53:55;;;;;;;6.53;2.47;;;;;;;;;;5049402;28;20025;-17
2020/12/29 10:56:21;;;;;;;5.63;2.63;;;;;;;;;;5038802;28;20416;-17
2020/12/29 10:58:46;;;;;;;2.45;1.70;;;;;;;;;;5028625;28;20021;-17
2020/12/29 11:01:12;;;;;;;3.55;1.67;;;;;;;;;;5048687;28;20040;-18
2020/12/29 11:03:38;;;;;;;10.35;5.22;;;;;;;;;;5049596;28;20191;-18
2020/12/29 11:06:11;;;;;;;7.93;5.15;;;;;;;;;;5049686;28;20120;-18
2020/12/29 11:08:36;;;;;;;4.53;3.10;;;;;;;;;;5048411;28;20438;-17
2020/12/29 11:11:02;;;;;;;4.00;2.60;;;;;;;;;;5049733;28;20040;-19
2020/12/29 11:13:28;;;;;;;5.22;3.50;;;;;;;;;;5047970;28;20076;-19
2020/12/29 11:15:53;;;;;;;3.08;2.08;;;;;;;;;;5048656;28;20021;-16
2020/12/29 11:18:18;;;;;;;5.20;3.03;;;;;;;;;;5049307;28;20036;-16
2020/12/29 11:20:44;;;;;;;5.47;2.72;;;;;;;;;;5048300;28;20024;-17
2020/12/29 11:23:10;;;;;;;1.90;1.23;;;;;;;;;;5049393;28;20039;-16
2020/12/29 11:25:35;;;;;;;2.30;1.42;;;;;;;;;;5049158;28;20025;-18
2020/12/29 11:28:01;;;;;;;1.70;1.15;;;;;;;;;;5049018;28;20071;-18
2020/12/29 11:30:26;;;;;;;1.83;1.20;;;;;;;;;;5047782;28;20475;-17
2020/12/29 11:32:52;;;;;;;1.65;1.00;;;;;;;;;;5044811;28;20037;-17
2020/12/29 11:35:17;;;;;;;1.58;0.90;;;;;;;;;;5029110;28;20049;-16
2020/12/29 11:37:43;;;;;;;1.17;1.00;;;;;;;;;;5028935;28;20021;-17
2020/12/29 11:40:09;;;;;;;1.33;0.63;;;;;;;;;;5029030;28;20033;-16
2020/12/29 11:46:10;;;;;;;1.58;1.08;;;;;;;;;;5029459;28;20049;-17
2020/12/29 11:48:35;;;;;;;7.28;5.28;;;;;;;;;;5029442;28;20033;-16
2020/12/29 11:51:01;;;;;;;4.93;3.67;;;;;;;;;;5010809;28;20077;-16
2020/12/29 11:53:27;;;;;;;2.15;0.60;;;;;;;;;;5028001;28;20053;-16
2020/12/29 11:55:52;;;;;;;2.83;1.60;;;;;;;;;;5027701;28;20025;-17
2020/12/29 11:58:18;;;;;;;1.23;0.52;;;;;;;;;;5028980;28;20044;-19
2020/12/29 12:00:43;;;;;;;4.72;0.70;;;;;;;;;;5028985;28;20022;-18
2020/12/29 12:03:09;;;;;;;0.77;0.40;;;;;;;;;;5048100;28;20116;-18
2020/12/29 12:05:34;;;;;;;2.45;2.00;;;;;;;;;;5048966;28;20028;-17
2020/12/29 12:08:00;;;;;;;0.77;0.55;;;;;;;;;;5048930;28;20039;-16
2020/12/29 12:10:25;;;;;;;0.60;0.60;;;;;;;;;;5048748;28;20028;-16
2020/12/29 12:12:50;;;;;;;10.90;2.97;;;;;;;;;;5048699;28;20617;-16
2020/12/29 12:15:16;;;;;;;2.38;1.75;;;;;;;;;;5048312;28;20096;-17
2020/12/29 12:17:42;;;;;;;2.13;0.90;;;;;;;;;;5048697;28;20029;-17
2020/12/29 12:20:07;;;;;;;10.05;1.10;;;;;;;;;;5048425;28;20021;-17
2020/12/29 12:22:33;;;;;;;3.03;1.15;;;;;;;;;;5048633;28;20040;-18
2020/12/29 12:25:14;;;;;;;2.55;1.73;;;;;;;;;;5048352;28;20071;-18
2020/12/29 12:27:39;;;;;;;1.60;1.30;;;;;;;;;;5047994;28;20568;-17
2020/12/29 12:30:04;;;;;;;2.30;1.30;;;;;;;;;;5034736;28;20025;-17
2020/12/29 12:32:30;;;;;;;1.70;1.17;;;;;;;;;;5052658;28;20527;-17
2020/12/29 12:34:55;;;;;;;1.00;0.90;;;;;;;;;;5052433;28;20020;-17
2020/12/29 12:37:21;;;;;;;5.05;0.75;;;;;;;;;;5052025;28;20097;-18
2020/12/29 12:39:46;;;;;;;1.70;0.73;;;;;;;;;;5050894;28;20427;-17
2020/12/29 12:42:12;;;;;;;1.10;0.90;;;;;;;;;;5052329;28;20033;-17
2020/12/29 12:44:39;;;;;;;2.47;1.20;;;;;;;;;;5051887;28;20009;-18
2020/12/29 12:47:05;;;;;;;1.45;0.77;;;;;;;;;;5051760;28;20111;-18
2020/12/29 12:49:31;;;;;;;1.58;1.40;;;;;;;;;;5030878;28;20100;-17
2020/12/29 12:51:56;;;;;;;1.13;0.82;;;;;;;;;;5051503;28;20496;-18
2020/12/29 12:54:22;;;;;;;1.08;0.90;;;;;;;;;;5052026;28;20104;-17
2020/12/29 12:56:51;;;;;;;0.55;0.55;;;;;;;;;;5051432;28;20028;-18
2020/12/29 12:59:17;;;;;;;0.75;0.50;;;;;;;;;;5050155;28;20707;-18
2020/12/29 13:01:42;;;;;;;1.58;1.45;;;;;;;;;;5051306;28;20037;-17
2020/12/29 13:04:07;;;;;;;0.88;0.73;;;;;;;;;;5033294;28;20021;-18
2020/12/29 13:06:33;;;;;;;1.25;0.63;;;;;;;;;;5050133;28;20037;-19
2020/12/29 13:08:59;;;;;;;0.95;0.65;;;;;;;;;;5049998;28;20035;-18
2020/12/29 13:11:25;;;;;;;1.35;1.00;;;;;;;;;;5051303;28;20129;-18
2020/12/29 13:13:50;;;;;;;4.75;3.25;;;;;;;;;;5049487;28;20120;-18
2020/12/29 13:16:19;;;;;;;3.10;1.98;;;;;;;;;;5041940;28;20033;-19
2020/12/29 13:18:45;;;;;;;1.45;1.05;;;;;;;;;;5031808;28;20021;-18
2020/12/29 13:21:11;;;;;;;1.23;1.00;;;;;;;;;;5031442;28;20037;-19
2020/12/29 13:23:37;;;;;;;0.98;0.70;;;;;;;;;;5030542;28;20076;-18
2020/12/29 13:26:03;;;;;;;1.20;1.10;;;;;;;;;;5030616;28;20041;-17
2020/12/29 13:28:28;;;;;;;1.98;1.20;;;;;;;;;;5031554;28;20093;-18
2020/12/29 13:30:53;;;;;;;1.40;0.93;;;;;;;;;;5031722;28;20148;-18
2020/12/29 13:33:19;;;;;;;1.55;0.80;;;;;;;;;;5039006;28;20090;-19
2020/12/29 13:35:44;;;;;;;3.05;0.93;;;;;;;;;;5050152;28;20021;-18
2020/12/29 13:38:10;;;;;;;1.90;0.80;;;;;;;;;;5050798;28;20056;-18
2020/12/29 13:40:35;;;;;;;1.58;0.88;;;;;;;;;;5049373;28;20040;-18
2020/12/29 13:43:01;;;;;;;1.67;0.80;;;;;;;;;;5051358;28;20405;-18
2020/12/29 13:45:26;;;;;;;1.65;0.60;;;;;;;;;;5049934;28;20041;-18
2020/12/29 13:47:52;;;;;;;0.85;0.57;;;;;;;;;;5051080;28;20031;-18
2020/12/29 13:50:17;;;;;;;0.63;0.63;;;;;;;;;;5050388;28;20181;-18
2020/12/29 13:52:43;;;;;;;1.38;0.63;;;;;;;;;;5050706;28;20045;-19
2020/12/29 13:55:08;;;;;;;0.73;0.55;;;;;;;;;;5049725;28;20044;-18
2020/12/29 13:57:33;;;;;;;1.50;1.00;;;;;;;;;;5050997;28;20029;-18
2020/12/29 13:59:59;;;;;;;1.08;0.70;;;;;;;;;;5051325;28;20036;-18
2020/12/29 14:02:24;;;;;;;0.85;0.55;;;;;;;;;;5049346;28;20439;-18
2020/12/29 14:04:50;;;;;;;2.83;1.02;;;;;;;;;;5050945;28;20036;-18
2020/12/29 14:07:15;;;;;;;1.83;0.98;;;;;;;;;;5051115;28;20025;-17
2020/12/29 14:09:41;;;;;;;5.80;1.40;;;;;;;;;;5049634;28;20482;-18
2020/12/29 14:12:06;;;;;;;2.50;1.58;;;;;;;;;;5050584;28;20703;-18
2020/12/29 14:14:32;;;;;;;2.78;2.08;;;;;;;;;;5050362;28;20043;-19
2020/12/29 14:16:58;;;;;;;3.00;2.63;;;;;;;;;;5049426;28;20036;-18
2020/12/29 14:19:24;;;;;;;4.53;3.42;;;;;;;;;;5050672;28;20123;-18
2020/12/29 14:21:50;;;;;;;3.22;2.00;;;;;;;;;;5050562;28;20032;-18
2020/12/29 14:24:16;;;;;;;1.88;1.25;;;;;;;;;;5050710;28;20041;-18
2020/12/29 14:26:46;;;;;;;1.50;1.00;;;;;;;;;;5050348;28;20028;-19
2020/12/29 14:29:13;;;;;;;1.58;1.40;;;;;;;;;;5050522;28;20021;-18
2020/12/29 14:31:43;;;;;;;2.00;1.20;;;;;;;;;;5050339;28;20072;-19
2020/12/29 14:34:08;;;;;;;3.13;1.17;;;;;;;;;;5050173;28;20031;-17
2020/12/29 14:36:33;;;;;;;1.50;1.00;;;;;;;;;;5050310;28;20025;-19
2020/12/29 14:38:59;;;;;;;3.78;1.40;;;;;;;;;;5050020;28;20029;-19
2020/12/29 14:41:24;;;;;;;1.95;1.50;;;;;;;;;;5050260;28;20032;-18
2020/12/29 14:43:50;;;;;;;4.07;1.65;;;;;;;;;;5050436;28;20029;-19
2020/12/29 14:46:21;;;;;;;1.63;0.90;;;;;;;;;;5050364;28;20053;-19